createdAt,value
2019-04-11T00:01:03.875Z,97905.52
2019-04-11T00:03:05.097Z,97908.92
2019-04-11T00:05:06.460Z,97913.68
2019-04-11T00:07:08.024Z,97913.28
2019-04-11T00:09:10.247Z,97907.42
2019-04-11T00:11:11.528Z,97909.07
2019-04-11T00:13:21.120Z,97910.28
2019-04-11T00:15:14.524Z,97910.19
2019-04-11T00:17:16.108Z,97909.18
2019-04-11T00:19:18.969Z,97915.02
2019-04-11T00:21:20.408Z,97918.36
2019-04-11T00:23:21.809Z,97915.72
2019-04-11T00:25:23.193Z,97917.05
2019-04-11T00:27:24.641Z,97912.94
2019-04-11T00:29:26.139Z,97918.48
2019-04-11T00:31:28.520Z,97919.95
2019-04-11T00:33:29.947Z,97916.39
2019-04-11T00:35:31.445Z,97922.28
2019-04-11T00:37:32.780Z,97929.50
2019-04-11T00:39:35.327Z,97920.06
2019-04-11T00:41:35.965Z,97919.22
2019-04-11T00:43:41.721Z,97923.89
2019-04-11T00:45:40.100Z,97922.61
2019-04-11T00:47:41.543Z,97925.18
2019-04-11T00:49:42.960Z,97919.64
2019-04-11T00:51:44.416Z,97922.96
2019-04-11T00:53:46.534Z,97921.70
2019-04-11T00:55:48.091Z,97927.37
2019-04-11T00:57:49.506Z,97928.81
2019-04-11T00:59:50.965Z,97936.89
2019-04-11T01:01:53.317Z,97935.56
2019-04-11T01:03:54.060Z,97933.79
2019-04-11T01:05:56.620Z,97935.53
2019-04-11T01:07:57.720Z,97936.84
2019-04-11T01:09:58.963Z,97937.70
2019-04-11T01:12:00.533Z,97933.48
2019-04-11T01:14:02.117Z,97937.69
2019-04-11T01:16:04.969Z,97940.66
2019-04-11T01:18:05.586Z,97941.59
2019-04-11T01:20:07.124Z,97936.47
2019-04-11T01:22:09.713Z,97938.05
2019-04-11T01:24:11.360Z,97934.98
2019-04-11T01:26:12.851Z,97933.27
2019-04-11T01:28:14.295Z,97943.59
2019-04-11T01:30:15.828Z,97941.95
2019-04-11T01:32:17.991Z,97940.69
2019-04-11T01:34:18.684Z,97943.80
2019-04-11T01:36:20.608Z,97946.50
2019-04-11T01:38:23.719Z,97942.69
2019-04-11T01:40:23.604Z,97944.80
2019-04-11T01:42:25.220Z,97942.73
2019-04-11T01:44:26.808Z,97937.21
2019-04-11T01:46:29.825Z,97941.45
2019-04-11T01:48:36.537Z,97938.94
2019-04-11T01:50:38.075Z,97943.63
2019-04-11T01:52:39.698Z,97941.38
2019-04-11T01:54:41.305Z,97943.31
2019-04-11T01:56:42.943Z,97946.64
2019-04-11T01:58:44.709Z,97944.88
2019-04-11T02:00:52.565Z,97943.59
2019-04-11T02:02:54.943Z,97950.33
2019-04-11T02:04:56.515Z,97949.77
2019-04-11T02:06:58.371Z,97944.63
2019-04-11T02:08:59.836Z,97941.59
2019-04-11T02:11:01.447Z,97941.20
2019-04-11T02:13:03.625Z,97940.73
2019-04-11T02:15:04.654Z,97938.17
2019-04-11T02:17:06.477Z,97940.30
2019-04-11T02:19:07.997Z,97948.04
2019-04-11T02:21:09.534Z,97943.86
2019-04-11T02:23:11.152Z,97945.63
2019-04-11T02:25:30.404Z,97950.34
2019-04-11T02:27:31.171Z,97943.64
2019-04-11T02:29:33.298Z,97945.08
2019-04-11T02:31:34.950Z,97948.44
2019-04-11T02:33:37.116Z,97946.42
2019-04-11T02:35:39.675Z,97949.86
2019-04-11T02:37:39.944Z,97946.53
2019-04-11T02:39:42.715Z,97947.16
2019-04-11T02:41:44.362Z,97947.49
2019-04-11T02:43:44.713Z,97953.04
2019-04-11T02:45:58.769Z,97948.72
2019-04-11T02:47:48.622Z,97955.03
2019-04-11T02:49:49.644Z,97947.19
2019-04-11T02:51:51.292Z,97954.44
2019-04-11T02:53:54.226Z,97957.80
2019-04-11T02:55:55.988Z,97959.50
2019-04-11T02:57:57.009Z,97966.37
2019-04-11T02:59:57.691Z,97961.63
2019-04-11T03:02:00.473Z,97959.92
2019-04-11T03:04:02.004Z,97962.91
2019-04-11T03:06:04.344Z,97969.42
2019-04-11T03:08:08.022Z,97969.88
2019-04-11T03:10:07.231Z,97968.17
2019-04-11T03:12:09.344Z,97966.08
2019-04-11T03:14:09.784Z,97968.64
2019-04-11T03:16:24.769Z,97968.23
2019-04-11T03:18:26.249Z,97972.07
2019-04-11T03:20:25.828Z,97975.08
2019-04-11T03:22:16.155Z,97972.52
2019-04-11T03:24:18.158Z,97981.05
2019-04-11T03:26:21.051Z,97980.19
2019-04-11T03:28:27.048Z,97983.25
2019-04-11T03:30:34.841Z,97979.83
2019-04-11T03:33:17.343Z,97990.48
2019-04-11T03:35:16.887Z,97993.84
2019-04-11T03:38:46.550Z,97992.60
2019-04-11T03:40:55.241Z,97993.41
2019-04-11T03:42:48.036Z,97992.56
2019-04-11T03:44:41.733Z,97996.37
2019-04-11T03:46:49.215Z,97998.09
2019-04-11T03:48:50.685Z,97992.97
2019-04-11T03:50:39.958Z,98000.27
2019-04-11T03:52:40.884Z,97993.45
2019-04-11T03:54:42.768Z,97996.03
2019-04-11T03:56:45.730Z,97998.14
2019-04-11T03:58:46.192Z,98002.05
2019-04-11T04:00:49.743Z,98004.97
2019-04-11T04:02:49.594Z,98002.86
2019-04-11T04:04:51.392Z,98008.69
2019-04-11T04:06:52.840Z,98012.95
2019-04-11T04:08:55.622Z,98015.57
2019-04-11T04:11:01.491Z,98013.55
2019-04-11T04:13:04.800Z,98027.23
2019-04-11T04:15:08.330Z,98024.16
2019-04-11T04:17:19.312Z,98026.73
2019-04-11T04:19:28.579Z,98028.52
2019-04-11T04:21:33.082Z,98031.56
2019-04-11T04:23:33.652Z,98032.09
2019-04-11T04:25:36.232Z,98037.66
2019-04-11T04:27:36.498Z,98042.41
2019-04-11T04:29:38.175Z,98038.10
2019-04-11T04:31:40.573Z,98039.38
2019-04-11T04:33:42.794Z,98047.88
2019-04-11T04:35:44.781Z,98046.98
2019-04-11T04:37:45.381Z,98049.04
2019-04-11T04:39:47.840Z,98048.59
2019-04-11T04:41:57.949Z,98056.16
2019-04-11T04:43:50.678Z,98055.66
2019-04-11T04:46:08.334Z,98056.42
2019-04-11T04:48:00.742Z,98061.41
2019-04-11T04:49:54.594Z,98058.61
2019-04-11T04:51:56.230Z,98058.18
2019-04-11T04:53:59.490Z,98054.59
2019-04-11T04:56:00.360Z,98058.40
2019-04-11T04:58:02.030Z,98061.73
2019-04-11T05:00:05.039Z,98056.69
2019-04-11T05:02:06.578Z,98084.02
2019-04-11T05:04:06.813Z,98065.59
2019-04-11T05:06:07.860Z,98063.52
2019-04-11T05:08:10.763Z,98068.20
2019-04-11T05:10:11.301Z,98072.48
2019-04-11T05:12:13.885Z,98071.64
2019-04-11T05:14:14.610Z,98073.41
2019-04-11T05:16:17.839Z,98079.81
2019-04-11T05:18:20.081Z,98081.56
2019-04-11T05:20:19.740Z,98082.88
2019-04-11T05:22:21.064Z,98084.64
2019-04-11T05:24:22.949Z,98088.11
2019-04-11T05:26:25.591Z,98098.64
2019-04-11T05:28:26.045Z,98088.40
2019-04-11T05:30:27.657Z,98085.91
2019-04-11T05:32:29.246Z,98085.22
2019-04-11T05:34:30.969Z,98085.19
2019-04-11T05:36:32.515Z,98081.86
2019-04-11T05:38:34.122Z,98083.22
2019-04-11T05:40:35.744Z,98131.95
2019-04-11T05:42:37.637Z,98087.27
2019-04-11T05:44:40.300Z,98088.98
2019-04-11T05:46:49.915Z,98089.46
2019-04-11T05:48:48.250Z,98092.07
2019-04-11T05:50:51.655Z,98089.05
2019-04-11T05:52:52.487Z,98089.83
2019-04-11T05:54:54.270Z,98094.16
2019-04-11T05:56:58.223Z,98092.46
2019-04-11T05:58:59.914Z,98094.23
2019-04-11T06:01:03.503Z,98100.46
2019-04-11T06:03:05.800Z,98095.05
2019-04-11T06:05:17.266Z,98098.44
2019-04-11T06:07:23.158Z,98096.45
2019-04-11T06:09:25.070Z,98103.30
2019-04-11T06:11:43.179Z,98098.80
2019-04-11T06:13:54.848Z,98098.78
2019-04-11T06:15:59.738Z,98111.46
2019-04-11T06:17:58.986Z,98110.36
2019-04-11T06:20:22.041Z,98108.85
2019-04-11T06:22:23.519Z,98117.48
2019-04-11T06:24:27.993Z,98113.94
2019-04-11T06:26:47.056Z,98114.52
2019-04-11T06:28:49.277Z,98117.83
2019-04-11T06:31:05.977Z,98115.11
2019-04-11T06:50:57.676Z,98129.76
2019-04-11T06:53:00.224Z,98127.91
2019-04-11T06:55:16.672Z,98135.00
2019-04-11T06:57:18.731Z,98126.33
2019-04-11T06:59:20.988Z,98132.30
2019-04-11T07:01:22.576Z,98134.41
2019-04-11T07:03:26.317Z,98140.80
2019-04-11T07:05:26.735Z,98111.19
2019-04-11T07:07:28.984Z,98136.69
2019-04-11T07:09:45.021Z,98141.37
2019-04-11T07:11:47.378Z,98136.66
2019-04-11T07:13:51.456Z,98142.92
2019-04-11T07:15:53.035Z,98088.89
2019-04-11T07:18:01.032Z,98145.60
2019-04-11T07:20:18.654Z,98140.20
2019-04-11T07:22:25.256Z,98135.11
2019-04-11T07:24:28.116Z,98174.63
2019-04-11T07:26:30.250Z,98152.52
2019-04-11T07:28:47.974Z,98155.00
2019-04-11T07:30:56.076Z,98146.55
2019-04-11T07:32:56.720Z,98149.09
2019-04-11T07:35:00.038Z,98153.27
2019-04-11T07:37:06.845Z,98150.13
2019-04-11T07:39:23.017Z,98151.70
2019-04-11T07:41:31.796Z,98156.36
2019-04-11T07:43:33.402Z,98156.92
2019-04-11T07:45:47.617Z,98162.82
2019-04-11T07:47:53.003Z,98157.55
2019-04-11T07:49:55.663Z,98163.27
2019-04-11T07:51:56.267Z,98162.02
2019-04-11T07:53:57.919Z,98159.13
2019-04-11T07:56:02.053Z,98162.48
2019-04-11T07:58:06.987Z,98162.23
2019-04-11T08:00:08.572Z,98162.25
2019-04-11T08:02:25.035Z,98164.62
2019-04-11T08:04:32.287Z,98164.42
2019-04-11T08:06:35.460Z,98169.58
2019-04-11T08:08:37.084Z,98171.42
2019-04-11T08:10:44.369Z,98168.64
2019-04-11T08:12:46.051Z,98172.66
2019-04-11T08:14:53.424Z,98182.37
2019-04-11T08:17:01.652Z,98178.28
2019-04-11T08:19:05.957Z,98179.42
2019-04-11T08:21:14.088Z,98177.89
2019-04-11T08:23:15.650Z,98175.28
2019-04-11T08:25:19.016Z,98176.95
2019-04-11T08:27:27.379Z,98178.63
2019-04-11T08:29:28.634Z,98176.39
2019-04-11T08:31:49.421Z,98175.98
2019-04-11T08:33:51.022Z,98188.02
2019-04-11T08:36:05.194Z,98190.17
2019-04-11T08:38:09.921Z,98187.61
2019-04-11T08:40:11.463Z,98182.54
2019-04-11T08:42:17.557Z,98187.53
2019-04-11T08:44:19.518Z,98187.19
2019-04-11T08:46:20.832Z,98185.10
2019-04-11T08:48:22.419Z,98189.38
2019-04-11T08:50:24.008Z,98182.48
2019-04-11T08:52:32.142Z,98180.95
2019-04-11T08:54:53.526Z,98184.68
2019-04-11T08:56:54.171Z,98183.82
2019-04-11T08:58:57.489Z,98181.48
2019-04-11T09:01:00.573Z,98191.38
2019-04-11T09:03:05.111Z,98193.07
2019-04-11T09:05:15.126Z,98191.73
2019-04-11T09:07:13.586Z,98193.94
2019-04-11T09:09:20.938Z,98196.92
2019-04-11T09:11:24.708Z,98193.52
2019-04-11T09:13:31.306Z,98191.52
2019-04-11T09:15:39.087Z,98185.84
2019-04-11T09:17:48.371Z,98199.86
2019-04-11T09:19:57.029Z,98195.77
2019-04-11T09:22:04.717Z,98201.95
2019-04-11T09:24:06.175Z,98195.88
2019-04-11T09:26:13.875Z,98199.34
2019-04-11T09:28:15.399Z,98196.43
2019-04-11T09:30:17.440Z,98210.94
2019-04-11T09:32:28.496Z,98198.72
2019-04-11T09:34:30.195Z,98207.05
2019-04-11T09:36:32.818Z,98208.12
2019-04-11T09:38:40.229Z,98206.52
2019-04-11T09:40:56.991Z,98211.84
2019-04-11T09:43:01.787Z,98215.39
2019-04-11T09:54:03.581Z,98208.87
2019-04-11T09:56:10.978Z,98211.84
2019-04-11T09:58:27.524Z,98207.63
2019-04-11T10:00:30.417Z,98211.45
2019-04-11T10:02:46.204Z,98210.73
2019-04-11T10:04:48.072Z,98210.30
2019-04-11T10:06:57.054Z,98215.86
2019-04-11T10:08:59.615Z,98242.43
2019-04-11T10:11:05.819Z,98214.27
2019-04-11T10:13:12.978Z,98213.89
2019-04-11T10:15:13.960Z,98212.64
2019-04-11T10:17:23.375Z,98211.00
2019-04-11T10:19:24.371Z,98213.54
2019-04-11T10:21:25.932Z,98205.86
2019-04-11T10:23:45.137Z,98213.49
2019-04-11T10:25:47.502Z,98207.59
2019-04-11T10:27:51.027Z,98209.37
2019-04-11T10:30:08.711Z,98209.83
2019-04-11T10:32:10.754Z,98213.28
2019-04-11T10:34:13.285Z,98217.05
2019-04-11T10:36:19.684Z,98216.61
2019-04-11T10:38:22.436Z,98211.48
2019-04-11T10:40:24.620Z,98209.42
2019-04-11T10:42:26.641Z,98214.12
2019-04-11T10:44:45.763Z,98215.48
2019-04-11T10:46:49.856Z,98210.65
2019-04-11T10:48:51.464Z,98211.41
2019-04-11T10:51:00.716Z,98216.58
2019-04-11T10:53:02.691Z,98215.81
2019-04-11T10:55:09.404Z,98215.94
2019-04-11T10:57:15.935Z,98221.76
2019-04-11T10:59:17.506Z,98215.53
2019-04-11T11:01:36.963Z,98217.76
2019-04-11T11:03:38.521Z,98220.38
2019-04-11T11:05:42.909Z,98220.03
2019-04-11T11:07:44.627Z,98220.08
2019-04-11T11:09:46.323Z,98218.37
2019-04-11T11:11:59.220Z,98223.13
2019-04-11T11:14:16.529Z,98213.81
2019-04-11T11:16:18.158Z,98220.53
2019-04-11T11:18:54.018Z,98216.67
2019-04-11T11:20:34.118Z,98216.69
2019-04-11T11:22:33.102Z,98220.03
2019-04-11T11:24:46.704Z,98222.21
2019-04-11T11:26:51.978Z,98218.30
2019-04-11T11:28:56.767Z,98216.97
2019-04-11T11:31:03.209Z,98223.00
2019-04-11T11:33:05.747Z,98222.23
2019-04-11T11:35:07.311Z,98226.08
2019-04-11T11:37:15.650Z,98226.64
2019-04-11T11:39:19.511Z,98221.52
2019-04-11T11:41:28.090Z,98227.90
2019-04-11T11:43:28.613Z,98226.52
2019-04-11T11:45:47.904Z,98227.08
2019-04-11T11:47:49.000Z,98230.52
2019-04-11T11:49:56.898Z,98225.67
2019-04-11T11:51:53.967Z,98230.74
2019-04-11T11:54:00.860Z,98230.41
2019-04-11T11:56:02.476Z,98229.93
2019-04-11T11:58:19.940Z,98235.47
2019-04-11T12:00:21.046Z,98224.86
2019-04-11T12:02:24.263Z,98232.62
2019-04-11T12:04:35.395Z,98231.52
2019-04-11T12:06:33.393Z,98237.98
2019-04-11T12:08:51.307Z,98234.69
2019-04-11T12:10:53.327Z,98239.08
2019-04-11T12:13:03.286Z,98231.53
2019-04-11T12:15:22.294Z,98240.52
2019-04-11T12:17:23.068Z,98238.91
2019-04-11T12:19:26.878Z,98236.84
2019-04-11T12:21:38.617Z,98238.19
2019-04-11T12:23:48.658Z,98242.50
2019-04-11T12:25:43.647Z,98246.41
2019-04-11T12:28:00.451Z,98249.44
2019-04-11T12:30:15.680Z,98242.25
2019-04-11T12:32:34.861Z,98236.38
2019-04-11T12:34:37.285Z,98239.80
2019-04-11T12:36:43.058Z,98236.02
2019-04-11T12:38:44.084Z,98243.80
2019-04-11T12:40:51.369Z,98245.50
2019-04-11T12:42:52.952Z,98231.92
2019-04-11T12:45:00.237Z,98232.81
2019-04-11T12:47:03.360Z,98235.00
2019-04-11T12:49:22.694Z,98231.64
2019-04-11T12:51:30.088Z,98234.25
2019-04-11T12:53:31.669Z,98229.12
2019-04-11T12:55:35.863Z,98230.87
2019-04-11T12:57:42.517Z,98235.61
2019-04-11T12:59:44.100Z,98235.28
2019-04-11T13:01:51.433Z,98234.48
2019-04-11T13:04:08.734Z,98234.15
2019-04-11T13:06:16.456Z,98229.52
2019-04-11T13:08:23.632Z,98230.80
2019-04-11T13:10:25.220Z,98238.09
2019-04-11T13:12:39.652Z,98239.84
2019-04-11T13:14:43.149Z,98231.75
2019-04-11T13:16:44.756Z,98234.17
2019-04-11T13:18:46.344Z,98222.52
2019-04-11T13:20:53.546Z,98231.18
2019-04-11T13:22:57.630Z,98235.55
2019-04-11T13:25:00.151Z,98231.84
2019-04-11T13:27:17.545Z,98235.73
2019-04-11T13:29:19.183Z,98238.34
2019-04-11T13:31:31.412Z,98239.27
2019-04-11T13:33:33.032Z,98239.70
2019-04-11T13:35:35.272Z,98238.97
2019-04-11T13:37:42.700Z,98233.55
2019-04-11T13:39:46.563Z,98238.86
2019-04-11T13:41:51.645Z,98232.65
2019-04-11T13:43:53.266Z,98235.41
2019-04-11T13:45:57.522Z,98236.30
2019-04-11T13:48:04.824Z,98231.86
2019-04-11T13:50:16.321Z,98231.35
2019-04-11T13:52:10.087Z,98226.14
2019-04-11T14:05:18.666Z,98244.97
2019-04-11T14:07:23.260Z,98235.66
2019-04-11T14:09:36.808Z,98239.49
2019-04-11T14:11:38.456Z,98238.69
2019-04-11T14:13:41.555Z,98231.80
2019-04-11T14:15:45.759Z,98238.18
2019-04-11T14:17:47.363Z,98235.80
2019-04-11T14:19:55.506Z,98231.80
2019-04-11T14:21:57.092Z,98239.38
2019-04-11T14:24:13.581Z,98237.45
2019-04-11T14:26:15.233Z,98248.20
2019-04-11T14:28:16.856Z,98189.15
2019-04-11T14:30:19.262Z,98190.84
2019-04-11T14:32:24.186Z,98241.02
2019-04-11T14:34:36.099Z,98240.22
2019-04-11T14:36:43.410Z,98240.64
2019-04-11T14:38:47.976Z,98234.70
2019-04-11T14:41:01.138Z,98237.98
2019-04-11T14:42:58.652Z,98236.25
2019-04-11T14:45:00.237Z,98235.86
2019-04-11T14:47:07.493Z,98248.31
2019-04-11T14:49:10.463Z,98245.02
2019-04-11T14:51:15.960Z,98248.37
2019-04-11T14:53:18.917Z,98244.07
2019-04-11T14:55:20.496Z,98244.53
2019-04-11T14:57:25.998Z,98246.55
2019-04-11T14:59:28.100Z,98238.09
2019-04-11T15:01:29.734Z,98241.30
2019-04-11T15:03:43.290Z,98243.64
2019-04-11T15:05:44.893Z,98242.64
2019-04-11T15:07:46.144Z,98241.64
2019-04-11T15:09:51.959Z,98240.00
2019-04-11T15:11:54.991Z,98225.29
2019-04-11T15:13:58.044Z,98244.19
2019-04-11T15:16:14.510Z,98238.83
2019-04-11T15:18:16.097Z,98243.17
2019-04-11T15:20:23.329Z,98242.59
2019-04-11T15:22:39.828Z,98242.20
2019-04-11T15:24:42.320Z,98243.93
2019-04-11T15:26:58.828Z,98250.27
2019-04-11T15:29:00.420Z,98253.00
2019-04-11T15:31:05.545Z,98243.09
2019-04-11T15:33:10.800Z,98245.84
2019-04-11T15:35:12.468Z,98236.70
2019-04-11T15:37:20.109Z,98245.73
2019-04-11T15:39:21.690Z,98249.84
2019-04-11T15:41:23.292Z,98245.17
2019-04-11T15:43:26.679Z,98248.80
2019-04-11T15:45:34.208Z,98246.97
2019-04-11T15:47:35.816Z,98250.80
2019-04-11T15:49:55.350Z,98250.48
2019-04-11T15:51:56.935Z,98251.36
2019-04-11T15:54:13.472Z,98250.84
2019-04-11T15:56:20.889Z,98243.97
2019-04-11T15:58:22.490Z,98251.11
2019-04-11T16:00:38.972Z,98251.91
2019-04-11T16:02:46.140Z,98251.59
2019-04-11T16:05:02.836Z,98245.96
2019-04-11T16:07:25.075Z,98251.47
2019-04-11T16:09:26.689Z,98258.63
2019-04-11T16:11:43.896Z,98256.43
2019-04-11T16:13:45.489Z,98249.38
2019-04-11T16:15:52.913Z,98255.17
2019-04-11T16:18:00.168Z,98256.30
2019-04-11T16:20:01.774Z,98255.78
2019-04-11T16:22:09.186Z,98256.88
2019-04-11T16:24:10.813Z,98266.53
2019-04-11T16:26:12.437Z,98262.52
2019-04-11T16:28:37.770Z,98263.47
2019-04-11T16:30:39.788Z,98256.80
2019-04-11T16:32:41.371Z,98259.49
2019-04-11T16:34:48.606Z,98259.69
2019-04-11T16:36:45.588Z,98261.98
2019-04-11T16:38:52.052Z,98261.27
2019-04-11T16:41:00.291Z,98269.42
2019-04-11T16:43:01.877Z,98268.00
2019-04-11T16:45:15.128Z,98266.54
2019-04-11T16:47:35.468Z,98269.81
2019-04-11T16:49:37.092Z,98263.27
2019-04-11T16:51:38.748Z,98271.72
2019-04-11T16:53:40.364Z,98269.88
2019-04-11T16:55:43.288Z,98268.45
2019-04-11T16:57:44.246Z,98265.06
2019-04-11T16:59:45.296Z,98262.29
2019-04-11T17:01:46.915Z,98267.17
2019-04-11T17:03:48.552Z,98265.98
2019-04-11T17:05:51.055Z,98266.51
2019-04-11T17:08:07.548Z,98272.54
2019-04-11T17:10:09.160Z,98267.50
2019-04-11T17:12:10.756Z,98276.45
2019-04-11T17:14:12.382Z,98274.75
2019-04-11T17:16:13.972Z,98282.91
2019-04-11T17:18:15.575Z,98275.23
2019-04-11T17:20:17.160Z,98276.50
2019-04-11T17:22:18.905Z,98280.23
2019-04-11T17:24:20.458Z,98276.80
2019-04-11T17:26:23.203Z,98278.08
2019-04-11T17:28:23.775Z,98277.19
2019-04-11T17:30:25.426Z,98284.78
2019-04-11T17:32:27.031Z,98288.56
2019-04-11T17:34:38.558Z,98292.83
2019-04-11T17:36:40.170Z,98294.16
2019-04-11T17:38:41.948Z,98295.75
2019-04-11T17:40:43.528Z,98296.19
2019-04-11T17:42:45.116Z,98303.43
2019-04-11T17:44:46.752Z,98307.69
2019-04-11T17:46:48.362Z,98308.55
2019-04-11T17:48:50.554Z,98312.38
2019-04-11T17:50:51.660Z,98315.75
2019-04-11T17:52:54.782Z,98311.90
2019-04-11T17:54:54.952Z,98315.73
2019-04-11T17:56:59.039Z,98318.73
2019-04-11T17:58:58.751Z,98321.77
2019-04-11T18:01:00.542Z,98321.35
2019-04-11T18:03:01.580Z,98332.50
2019-04-11T18:05:03.188Z,98327.02
2019-04-11T18:07:04.836Z,98335.16
2019-04-11T18:09:06.476Z,98337.32
2019-04-11T18:11:08.104Z,98337.84
2019-04-11T18:13:10.761Z,98339.62
2019-04-11T18:15:12.364Z,98336.69
2019-04-11T18:17:16.366Z,98343.95
2019-04-11T18:19:15.619Z,98340.16
2019-04-11T18:21:17.227Z,98341.63
2019-04-11T18:23:19.876Z,98345.22
2019-04-11T18:25:20.965Z,98327.84
2019-04-11T18:27:22.435Z,98346.17
2019-04-11T18:29:23.818Z,98349.43
2019-04-11T18:31:25.664Z,98356.84
2019-04-11T18:33:31.277Z,98347.18
2019-04-11T18:35:31.749Z,98358.05
2019-04-11T18:37:32.107Z,98362.36
2019-04-11T18:39:33.631Z,98359.55
2019-04-11T18:41:33.781Z,98361.19
2019-04-11T18:43:35.432Z,98348.38
2019-04-11T18:45:37.032Z,98363.78
2019-04-11T18:47:38.708Z,98365.41
2019-04-11T18:49:40.269Z,98365.47
2019-04-11T18:51:41.871Z,98369.83
2019-04-11T18:53:43.535Z,98361.41
2019-04-11T18:55:45.124Z,98366.17
2019-04-11T18:57:46.744Z,98361.98
2019-04-11T18:59:48.324Z,98346.83
2019-04-11T19:01:49.899Z,98360.20
2019-04-11T19:03:51.568Z,98365.81
2019-04-11T19:05:53.183Z,98363.34
2019-04-11T19:07:54.787Z,98364.55
2019-04-11T19:09:57.564Z,98367.47
2019-04-11T19:11:59.171Z,98363.45
2019-04-11T19:14:00.858Z,98369.73
2019-04-11T19:16:02.571Z,98368.83
2019-04-11T19:18:06.591Z,98374.53
2019-04-11T19:20:05.933Z,98361.80
2019-04-11T19:22:07.540Z,98370.50
2019-04-11T19:24:12.739Z,98365.17
2019-04-11T19:26:14.526Z,98360.78
2019-04-11T19:28:12.502Z,98364.13
2019-04-11T19:30:14.144Z,98370.50
2019-04-11T19:32:15.778Z,98369.63
2019-04-11T19:34:17.398Z,98370.18
2019-04-11T19:36:18.999Z,98369.33
2019-04-11T19:38:21.420Z,98371.83
2019-04-11T19:40:23.008Z,98371.17
2019-04-11T19:42:24.578Z,98369.03
2019-04-11T19:44:26.231Z,98374.74
2019-04-11T19:46:27.836Z,98319.32
2019-04-11T19:48:29.450Z,98373.09
2019-04-11T19:50:31.076Z,98368.89
2019-04-11T19:52:36.456Z,98366.27
2019-04-11T19:54:34.471Z,98371.03
2019-04-11T19:56:36.102Z,98365.53
2019-04-11T19:58:37.715Z,98366.34
2019-04-11T20:00:39.400Z,98370.13
2019-04-11T20:02:40.970Z,98368.88
2019-04-11T20:04:42.581Z,98366.81
2019-04-11T20:06:44.244Z,98364.84
2019-04-11T20:08:47.725Z,98366.48
2019-04-11T20:10:47.495Z,98367.51
2019-04-11T20:12:49.080Z,98368.48
2019-04-11T20:14:50.692Z,98371.86
2019-04-11T20:16:52.320Z,98364.81
2019-04-11T20:18:56.646Z,98372.97
2019-04-11T20:20:55.578Z,98364.72
2019-04-11T20:22:59.457Z,98373.18
2019-04-11T20:24:58.803Z,98370.60
2019-04-11T20:27:00.451Z,98377.83
2019-04-11T20:29:02.044Z,98371.51
2019-04-11T20:31:03.676Z,98368.71
2019-04-11T20:33:05.345Z,98368.89
2019-04-11T20:35:09.234Z,98369.67
2019-04-11T20:37:12.541Z,98372.36
2019-04-11T20:39:15.011Z,98371.63
2019-04-11T20:41:12.740Z,98368.28
2019-04-11T20:43:14.339Z,98362.83
2019-04-11T20:45:16.057Z,98364.95
2019-04-11T20:47:17.677Z,98367.52
2019-04-11T20:49:19.287Z,98370.08
2019-04-11T20:51:20.896Z,98370.92
2019-04-11T20:53:22.528Z,98370.08
2019-04-11T20:55:24.217Z,98363.67
2019-04-11T20:57:26.354Z,98367.88
2019-04-11T20:59:34.501Z,98374.65
2019-04-11T21:01:29.160Z,98366.03
2019-04-11T21:03:30.799Z,98361.48
2019-04-11T21:05:32.399Z,98363.81
2019-04-11T21:07:34.694Z,98369.95
2019-04-11T21:09:36.319Z,98378.36
2019-04-11T21:11:37.918Z,98364.56
2019-04-11T21:13:39.531Z,98368.45
2019-04-11T21:15:41.140Z,98367.31
2019-04-11T21:17:42.776Z,98364.55
2019-04-11T21:19:44.386Z,98368.25
2019-04-11T21:21:45.992Z,98370.83
2019-04-11T21:23:47.576Z,98364.46
2019-04-11T21:25:49.160Z,98364.06
2019-04-11T21:27:50.774Z,98369.17
2019-04-11T21:29:52.372Z,98361.49
2019-04-11T21:31:53.948Z,98358.55
2019-04-11T21:33:55.551Z,98362.70
2019-04-11T21:35:57.221Z,98363.70
2019-04-11T21:38:00.320Z,98368.34
2019-04-11T21:40:00.483Z,98370.61
2019-04-11T21:42:05.867Z,98376.09
2019-04-11T21:44:05.837Z,98370.25
2019-04-11T21:46:07.025Z,98379.90
2019-04-11T21:48:07.232Z,98373.15
2019-04-11T21:50:09.621Z,98374.19
2019-04-11T21:52:12.303Z,98370.87
2019-04-11T21:54:14.721Z,98369.78
2019-04-11T21:56:18.257Z,98372.47
2019-04-11T21:58:19.435Z,98373.81
2019-04-11T22:00:22.082Z,98375.63
2019-04-11T22:02:19.457Z,98376.13
2019-04-11T22:04:21.036Z,98386.83
2019-04-11T22:06:22.630Z,98391.58
2019-04-11T22:08:24.206Z,98383.11
2019-04-11T22:10:25.816Z,98344.04
2019-04-11T22:12:27.414Z,98392.12
2019-04-11T22:14:29.008Z,98388.72
2019-04-11T22:16:30.623Z,98389.61
2019-04-11T22:18:32.212Z,98387.44
2019-04-11T22:20:33.792Z,98396.77
2019-04-11T22:22:35.398Z,98394.63
2019-04-11T22:24:36.988Z,98395.48
2019-04-11T22:26:38.603Z,98390.42
2019-04-11T22:28:40.221Z,98397.97
2019-04-11T22:30:41.828Z,98390.30
2019-04-11T22:32:43.439Z,98394.61
2019-04-11T22:34:45.011Z,98398.45
2019-04-11T22:36:46.594Z,98396.32
2019-04-11T22:38:48.236Z,98395.00
2019-04-11T22:40:49.820Z,98387.81
2019-04-11T22:42:51.419Z,98391.69
2019-04-11T22:44:53.030Z,98393.84
2019-04-11T22:46:54.639Z,98395.59
2019-04-11T22:48:56.268Z,98392.28
2019-04-11T22:50:57.871Z,98386.84
2019-04-11T22:52:59.476Z,98384.84
2019-04-11T22:55:01.109Z,98384.48
2019-04-11T22:57:02.698Z,98389.22
2019-04-11T22:59:04.266Z,98387.56
2019-04-11T23:01:05.884Z,98386.72
2019-04-11T23:03:24.156Z,98387.99
2019-04-11T23:05:25.751Z,98365.67
2019-04-11T23:07:27.355Z,98393.48
2019-04-11T23:09:28.938Z,98394.70
2019-04-11T23:11:30.546Z,98388.36
2019-04-11T23:13:32.153Z,98394.66
2019-04-11T23:15:33.763Z,98395.47
2019-04-11T23:17:37.880Z,98390.78
2019-04-11T23:19:36.999Z,98394.16
2019-04-11T23:21:38.640Z,98394.58
2019-04-11T23:23:40.228Z,98395.91
2019-04-11T23:25:41.854Z,98390.77
2019-04-11T23:27:43.440Z,98393.32
2019-04-11T23:29:47.095Z,98389.59
2019-04-11T23:31:50.446Z,98395.14
2019-04-11T23:33:51.711Z,98390.88
2019-04-11T23:35:51.164Z,98387.05
2019-04-11T23:37:52.054Z,98394.30
2019-04-11T23:39:53.484Z,98345.38
2019-04-11T23:41:55.112Z,98393.80
2019-04-11T23:43:56.696Z,98392.45
2019-04-11T23:45:58.299Z,98398.36
2019-04-11T23:47:59.945Z,98392.81
2019-04-11T23:50:01.564Z,98393.25
2019-04-11T23:52:03.210Z,98394.10
2019-04-11T23:54:04.818Z,98391.48
2019-04-11T23:56:06.424Z,98391.06
2019-04-11T23:58:08.057Z,98391.76
